sensor_id;sensor_type;location;lat;lon;timestamp;pressure;altitude;pressure_sealevel;temperature;humidity
59831;BME280;45711;50.108;13.712;2023-09-19T00:00:21;97388.72;;;17.70;88.67
59831;BME280;45711;50.108;13.712;2023-09-19T00:02:53;97390.56;;;17.78;89.31
59831;BME280;45711;50.108;13.712;2023-09-19T00:05:21;97386.47;;;17.84;89.64
59831;BME280;45711;50.108;13.712;2023-09-19T00:07:50;97387.38;;;17.64;88.47
59831;BME280;45711;50.108;13.712;2023-09-19T00:10:19;97382.00;;;17.76;88.35
59831;BME280;45711;50.108;13.712;2023-09-19T00:12:45;97386.47;;;17.72;90.46
59831;BME280;45711;50.108;13.712;2023-09-19T00:15:11;97387.16;;;17.69;91.21
59831;BME280;45711;50.108;13.712;2023-09-19T00:17:37;97389.66;;;17.74;90.99
59831;BME280;45711;50.108;13.712;2023-09-19T00:20:03;97383.00;;;17.26;90.82
59831;BME280;45711;50.108;13.712;2023-09-19T00:22:33;97384.38;;;17.20;91.59
59831;BME280;45711;50.108;13.712;2023-09-19T00:24:59;97390.38;;;17.38;92.31
59831;BME280;45711;50.108;13.712;2023-09-19T00:27:26;97386.47;;;17.60;91.50
59831;BME280;45711;50.108;13.712;2023-09-19T00:29:51;97383.28;;;17.33;92.40
59831;BME280;45711;50.108;13.712;2023-09-19T00:32:19;97396.34;;;17.44;92.67
59831;BME280;45711;50.108;13.712;2023-09-19T00:34:45;97390.72;;;17.49;91.26
59831;BME280;45711;50.108;13.712;2023-09-19T00:37:10;97387.88;;;17.45;91.66
59831;BME280;45711;50.108;13.712;2023-09-19T00:39:38;97390.06;;;17.64;90.40
59831;BME280;45711;50.108;13.712;2023-09-19T00:42:04;97392.78;;;17.64;90.07
59831;BME280;45711;50.108;13.712;2023-09-19T00:44:30;97393.88;;;17.39;90.72
59831;BME280;45711;50.108;13.712;2023-09-19T00:46:56;97399.13;;;17.23;91.75
59831;BME280;45711;50.108;13.712;2023-09-19T00:49:21;97392.03;;;17.30;91.62
59831;BME280;45711;50.108;13.712;2023-09-19T00:51:48;97391.50;;;17.49;91.06
59831;BME280;45711;50.108;13.712;2023-09-19T00:54:15;97393.63;;;17.44;91.18
59831;BME280;45711;50.108;13.712;2023-09-19T00:56:45;97398.94;;;17.40;91.32
59831;BME280;45711;50.108;13.712;2023-09-19T00:59:11;97388.91;;;17.41;90.26
59831;BME280;45711;50.108;13.712;2023-09-19T01:01:37;97384.41;;;17.45;90.28
59831;BME280;45711;50.108;13.712;2023-09-19T01:04:05;97380.38;;;17.63;88.57
59831;BME280;45711;50.108;13.712;2023-09-19T01:06:31;97390.50;;;17.42;89.64
59831;BME280;45711;50.108;13.712;2023-09-19T01:08:57;97381.97;;;18.13;88.27
59831;BME280;45711;50.108;13.712;2023-09-19T01:11:30;97374.38;;;17.57;87.90
59831;BME280;45711;50.108;13.712;2023-09-19T01:14:09;97384.00;;;17.79;87.82
59831;BME280;45711;50.108;13.712;2023-09-19T01:16:45;97375.56;;;17.81;87.21
59831;BME280;45711;50.108;13.712;2023-09-19T01:19:53;97376.66;;;17.68;87.17
59831;BME280;45711;50.108;13.712;2023-09-19T01:22:29;97378.41;;;18.37;84.96
59831;BME280;45711;50.108;13.712;2023-09-19T01:25:26;97375.03;;;18.80;82.09
59831;BME280;45711;50.108;13.712;2023-09-19T01:28:15;97362.88;;;18.34;81.53
59831;BME280;45711;50.108;13.712;2023-09-19T01:30:47;97381.06;;;17.72;85.09
59831;BME280;45711;50.108;13.712;2023-09-19T01:33:16;97382.06;;;17.68;86.33
59831;BME280;45711;50.108;13.712;2023-09-19T01:35:42;97378.91;;;18.67;84.51
59831;BME280;45711;50.108;13.712;2023-09-19T01:38:07;97364.41;;;18.47;82.85
59831;BME280;45711;50.108;13.712;2023-09-19T01:40:41;97373.06;;;18.00;82.88
59831;BME280;45711;50.108;13.712;2023-09-19T01:43:12;97360.34;;;18.41;83.99
59831;BME280;45711;50.108;13.712;2023-09-19T01:45:43;97355.59;;;18.91;81.06
59831;BME280;45711;50.108;13.712;2023-09-19T01:48:20;97364.63;;;17.77;84.00
59831;BME280;45711;50.108;13.712;2023-09-19T01:50:55;97378.53;;;17.43;87.22
59831;BME280;45711;50.108;13.712;2023-09-19T01:53:23;97387.25;;;17.61;87.96
59831;BME280;45711;50.108;13.712;2023-09-19T01:55:50;97397.50;;;17.67;88.04
59831;BME280;45711;50.108;13.712;2023-09-19T01:58:21;97392.19;;;17.46;88.30
59831;BME280;45711;50.108;13.712;2023-09-19T02:00:48;97404.00;;;17.29;89.91
59831;BME280;45711;50.108;13.712;2023-09-19T02:03:20;97402.91;;;17.09;91.00
59831;BME280;45711;50.108;13.712;2023-09-19T02:05:49;97408.22;;;17.18;90.95
59831;BME280;45711;50.108;13.712;2023-09-19T02:08:17;97410.47;;;17.16;91.63
59831;BME280;45711;50.108;13.712;2023-09-19T02:10:43;97402.16;;;17.21;91.08
59831;BME280;45711;50.108;13.712;2023-09-19T02:13:15;97408.44;;;17.13;91.86
59831;BME280;45711;50.108;13.712;2023-09-19T02:15:42;97401.53;;;17.49;90.52
59831;BME280;45711;50.108;13.712;2023-09-19T02:18:09;97401.88;;;17.47;89.11
59831;BME280;45711;50.108;13.712;2023-09-19T02:20:36;97401.28;;;17.29;90.59
59831;BME280;45711;50.108;13.712;2023-09-19T02:23:02;97400.97;;;17.43;90.12
59831;BME280;45711;50.108;13.712;2023-09-19T02:25:28;97390.97;;;17.56;87.91
59831;BME280;45711;50.108;13.712;2023-09-19T02:27:54;97387.81;;;17.66;87.27
59831;BME280;45711;50.108;13.712;2023-09-19T02:30:22;97390.25;;;17.34;89.37
59831;BME280;45711;50.108;13.712;2023-09-19T02:32:48;97397.41;;;17.76;88.83
59831;BME280;45711;50.108;13.712;2023-09-19T02:35:14;97388.16;;;17.65;88.29
59831;BME280;45711;50.108;13.712;2023-09-19T02:37:42;97383.78;;;17.72;87.05
59831;BME280;45711;50.108;13.712;2023-09-19T02:40:08;97383.97;;;17.55;88.12
59831;BME280;45711;50.108;13.712;2023-09-19T02:42:44;97391.22;;;17.63;88.01
59831;BME280;45711;50.108;13.712;2023-09-19T02:45:14;97387.94;;;17.70;87.47
59831;BME280;45711;50.108;13.712;2023-09-19T02:47:40;97386.97;;;17.41;88.59
59831;BME280;45711;50.108;13.712;2023-09-19T02:50:06;97380.03;;;17.52;87.53
59831;BME280;45711;50.108;13.712;2023-09-19T02:52:31;97387.78;;;17.54;88.37
59831;BME280;45711;50.108;13.712;2023-09-19T02:54:58;97385.22;;;17.70;88.26
59831;BME280;45711;50.108;13.712;2023-09-19T02:57:25;97380.16;;;17.80;86.55
59831;BME280;45711;50.108;13.712;2023-09-19T02:59:50;97379.94;;;17.73;86.32
59831;BME280;45711;50.108;13.712;2023-09-19T03:02:16;97384.00;;;18.04;86.09
59831;BME280;45711;50.108;13.712;2023-09-19T03:04:42;97373.31;;;17.95;85.68
59831;BME280;45711;50.108;13.712;2023-09-19T03:07:07;97375.75;;;17.64;85.99
59831;BME280;45711;50.108;13.712;2023-09-19T03:09:36;97382.47;;;17.33;88.86
59831;BME280;45711;50.108;13.712;2023-09-19T03:12:04;97395.38;;;17.61;88.49
59831;BME280;45711;50.108;13.712;2023-09-19T03:14:30;97386.31;;;17.44;88.13
59831;BME280;45711;50.108;13.712;2023-09-19T03:17:00;97385.28;;;17.37;87.96
59831;BME280;45711;50.108;13.712;2023-09-19T03:19:26;97367.59;;;18.37;83.56
59831;BME280;45711;50.108;13.712;2023-09-19T03:21:51;97365.25;;;18.76;81.08
59831;BME280;45711;50.108;13.712;2023-09-19T03:24:17;97351.81;;;19.55;76.42
59831;BME280;45711;50.108;13.712;2023-09-19T03:26:42;97355.22;;;19.36;75.99
59831;BME280;45711;50.108;13.712;2023-09-19T03:29:09;97363.78;;;18.78;79.23
59831;BME280;45711;50.108;13.712;2023-09-19T03:31:36;97368.38;;;19.06;78.53
59831;BME280;45711;50.108;13.712;2023-09-19T03:34:04;97361.69;;;19.16;76.71
59831;BME280;45711;50.108;13.712;2023-09-19T03:36:30;97353.88;;;19.14;76.19
59831;BME280;45711;50.108;13.712;2023-09-19T03:38:55;97369.25;;;18.94;77.64
59831;BME280;45711;50.108;13.712;2023-09-19T03:41:21;97376.59;;;18.41;80.16
59831;BME280;45711;50.108;13.712;2023-09-19T03:43:46;97386.53;;;18.49;81.97
59831;BME280;45711;50.108;13.712;2023-09-19T03:46:13;97386.72;;;17.79;84.03
59831;BME280;45711;50.108;13.712;2023-09-19T03:48:40;97390.19;;;17.68;86.06
59831;BME280;45711;50.108;13.712;2023-09-19T03:51:05;97394.94;;;17.83;86.02
59831;BME280;45711;50.108;13.712;2023-09-19T03:53:31;97402.13;;;17.67;86.89
59831;BME280;45711;50.108;13.712;2023-09-19T03:55:57;97383.91;;;18.13;83.44
59831;BME280;45711;50.108;13.712;2023-09-19T03:58:22;97388.06;;;18.22;82.49
59831;BME280;45711;50.108;13.712;2023-09-19T04:00:48;97382.66;;;19.19;77.76
59831;BME280;45711;50.108;13.712;2023-09-19T04:03:17;97376.47;;;19.18;76.42
59831;BME280;45711;50.108;13.712;2023-09-19T04:05:46;97378.59;;;19.56;75.26
59831;BME280;45711;50.108;13.712;2023-09-19T04:08:12;97370.81;;;19.39;75.60
59831;BME280;45711;50.108;13.712;2023-09-19T04:10:37;97382.03;;;19.38;75.86
59831;BME280;45711;50.108;13.712;2023-09-19T04:13:03;97380.59;;;19.28;75.33
59831;BME280;45711;50.108;13.712;2023-09-19T04:15:29;97388.84;;;18.63;77.18
59831;BME280;45711;50.108;13.712;2023-09-19T04:17:55;97402.50;;;18.79;78.91
59831;BME280;45711;50.108;13.712;2023-09-19T04:20:22;97415.59;;;18.24;80.57
59831;BME280;45711;50.108;13.712;2023-09-19T04:22:48;97435.25;;;17.51;85.12
59831;BME280;45711;50.108;13.712;2023-09-19T04:25:14;97432.31;;;17.90;84.98
59831;BME280;45711;50.108;13.712;2023-09-19T04:27:39;97434.34;;;17.47;86.81
59831;BME280;45711;50.108;13.712;2023-09-19T04:30:07;97448.84;;;17.09;88.86
59831;BME280;45711;50.108;13.712;2023-09-19T04:32:37;97455.59;;;17.03;89.97
59831;BME280;45711;50.108;13.712;2023-09-19T04:35:07;97455.66;;;17.16;88.72
59831;BME280;45711;50.108;13.712;2023-09-19T04:37:36;97457.66;;;16.86;90.39
59831;BME280;45711;50.108;13.712;2023-09-19T04:40:03;97464.84;;;16.81;91.71
59831;BME280;45711;50.108;13.712;2023-09-19T04:42:31;97473.81;;;16.94;91.28
59831;BME280;45711;50.108;13.712;2023-09-19T04:44:56;97472.53;;;16.92;91.24
59831;BME280;45711;50.108;13.712;2023-09-19T04:47:22;97481.25;;;16.76;92.28
59831;BME280;45711;50.108;13.712;2023-09-19T04:49:47;97481.13;;;16.94;91.34
59831;BME280;45711;50.108;13.712;2023-09-19T04:52:13;97477.28;;;16.95;91.04
59831;BME280;45711;50.108;13.712;2023-09-19T04:54:41;97476.22;;;17.08;90.43
59831;BME280;45711;50.108;13.712;2023-09-19T04:57:07;97471.81;;;17.03;90.54
59831;BME280;45711;50.108;13.712;2023-09-19T04:59:32;97475.81;;;17.18;91.07
59831;BME280;45711;50.108;13.712;2023-09-19T05:01:58;97470.50;;;16.89;91.43
59831;BME280;45711;50.108;13.712;2023-09-19T05:04:26;97484.88;;;16.80;92.32
59831;BME280;45711;50.108;13.712;2023-09-19T05:06:52;97485.53;;;16.77;91.66
59831;BME280;45711;50.108;13.712;2023-09-19T05:09:19;97479.78;;;16.79;92.02
59831;BME280;45711;50.108;13.712;2023-09-19T05:11:49;97483.84;;;16.94;90.95
59831;BME280;45711;50.108;13.712;2023-09-19T05:14:16;97500.69;;;16.61;92.47
59831;BME280;45711;50.108;13.712;2023-09-19T05:16:42;97499.56;;;16.62;93.17
59831;BME280;45711;50.108;13.712;2023-09-19T05:19:10;97508.28;;;16.76;92.12
59831;BME280;45711;50.108;13.712;2023-09-19T05:21:37;97509.44;;;16.88;92.52
59831;BME280;45711;50.108;13.712;2023-09-19T05:24:04;97502.00;;;16.84;91.90
59831;BME280;45711;50.108;13.712;2023-09-19T05:26:31;97509.94;;;16.90;90.68
59831;BME280;45711;50.108;13.712;2023-09-19T05:28:58;97502.63;;;16.90;91.43
59831;BME280;45711;50.108;13.712;2023-09-19T05:31:24;97503.19;;;16.96;90.78
59831;BME280;45711;50.108;13.712;2023-09-19T05:33:51;97499.38;;;16.97;90.23
59831;BME280;45711;50.108;13.712;2023-09-19T05:36:18;97503.25;;;17.08;88.97
59831;BME280;45711;50.108;13.712;2023-09-19T05:38:43;97501.72;;;17.40;88.71
59831;BME280;45711;50.108;13.712;2023-09-19T05:41:09;97500.50;;;17.50;86.96
59831;BME280;45711;50.108;13.712;2023-09-19T05:43:39;97504.69;;;17.26;86.86
59831;BME280;45711;50.108;13.712;2023-09-19T05:46:07;97513.56;;;17.48;86.68
59831;BME280;45711;50.108;13.712;2023-09-19T05:48:33;97506.53;;;17.34;87.55
59831;BME280;45711;50.108;13.712;2023-09-19T05:50:59;97501.22;;;18.17;82.99
59831;BME280;45711;50.108;13.712;2023-09-19T05:53:26;97495.13;;;18.69;80.27
59831;BME280;45711;50.108;13.712;2023-09-19T05:55:51;97489.72;;;18.32;79.73
59831;BME280;45711;50.108;13.712;2023-09-19T05:58:18;97496.63;;;18.42;79.57
59831;BME280;45711;50.108;13.712;2023-09-19T06:00:45;97514.66;;;18.25;81.66
59831;BME280;45711;50.108;13.712;2023-09-19T06:03:14;97519.25;;;17.55;84.41
59831;BME280;45711;50.108;13.712;2023-09-19T06:05:40;97519.72;;;17.69;85.44
59831;BME280;45711;50.108;13.712;2023-09-19T06:08:08;97522.88;;;17.59;85.96
59831;BME280;45711;50.108;13.712;2023-09-19T06:10:34;97537.84;;;17.56;86.87
59831;BME280;45711;50.108;13.712;2023-09-19T06:13:01;97530.34;;;18.07;85.27
59831;BME280;45711;50.108;13.712;2023-09-19T06:15:29;97515.34;;;18.59;81.68
59831;BME280;45711;50.108;13.712;2023-09-19T06:18:01;97521.06;;;17.96;83.37
59831;BME280;45711;50.108;13.712;2023-09-19T06:20:29;97525.16;;;18.76;80.46
59831;BME280;45711;50.108;13.712;2023-09-19T06:22:54;97516.56;;;18.98;79.37
59831;BME280;45711;50.108;13.712;2023-09-19T06:25:20;97516.81;;;18.44;79.67
59831;BME280;45711;50.108;13.712;2023-09-19T06:27:50;97526.84;;;18.44;79.48
59831;BME280;45711;50.108;13.712;2023-09-19T06:30:20;97527.25;;;19.07;77.70
59831;BME280;45711;50.108;13.712;2023-09-19T06:32:46;97529.09;;;18.91;77.51
59831;BME280;45711;50.108;13.712;2023-09-19T06:35:14;97522.69;;;19.51;75.06
59831;BME280;45711;50.108;13.712;2023-09-19T06:37:42;97535.81;;;19.21;75.24
59831;BME280;45711;50.108;13.712;2023-09-19T06:40:09;97544.69;;;18.57;78.54
59831;BME280;45711;50.108;13.712;2023-09-19T06:42:43;97548.75;;;18.51;79.09
59831;BME280;45711;50.108;13.712;2023-09-19T06:45:13;97561.19;;;18.52;80.20
59831;BME280;45711;50.108;13.712;2023-09-19T06:47:43;97554.59;;;19.02;76.97
59831;BME280;45711;50.108;13.712;2023-09-19T06:50:09;97560.50;;;18.43;78.90
59831;BME280;45711;50.108;13.712;2023-09-19T06:52:39;97542.16;;;19.41;74.40
59831;BME280;45711;50.108;13.712;2023-09-19T06:55:06;97548.00;;;19.83;72.57
59831;BME280;45711;50.108;13.712;2023-09-19T06:57:32;97553.88;;;19.57;73.21
59831;BME280;45711;50.108;13.712;2023-09-19T06:59:57;97555.53;;;19.34;73.67
59831;BME280;45711;50.108;13.712;2023-09-19T07:02:23;97567.97;;;18.95;76.58
59831;BME280;45711;50.108;13.712;2023-09-19T07:04:49;97563.13;;;19.69;73.64
59831;BME280;45711;50.108;13.712;2023-09-19T07:07:14;97564.66;;;19.01;75.29
59831;BME280;45711;50.108;13.712;2023-09-19T07:09:40;97552.44;;;19.48;73.81
59831;BME280;45711;50.108;13.712;2023-09-19T07:12:08;97555.78;;;19.85;72.11
59831;BME280;45711;50.108;13.712;2023-09-19T07:14:34;97556.72;;;19.49;73.25
59831;BME280;45711;50.108;13.712;2023-09-19T07:17:00;97573.81;;;18.97;76.24
59831;BME280;45711;50.108;13.712;2023-09-19T07:19:25;97586.41;;;19.42;74.86
59831;BME280;45711;50.108;13.712;2023-09-19T07:21:53;97583.72;;;19.57;73.62
59831;BME280;45711;50.108;13.712;2023-09-19T07:24:19;97584.09;;;19.16;76.33
59831;BME280;45711;50.108;13.712;2023-09-19T07:26:45;97581.78;;;19.30;76.30
59831;BME280;45711;50.108;13.712;2023-09-19T07:29:12;97600.81;;;19.46;76.45
59831;BME280;45711;50.108;13.712;2023-09-19T07:31:37;97586.81;;;21.11;72.02
59831;BME280;45711;50.108;13.712;2023-09-19T07:34:03;97564.72;;;23.04;63.58
59831;BME280;45711;50.108;13.712;2023-09-19T07:36:30;97551.41;;;23.97;57.80
59831;BME280;45711;50.108;13.712;2023-09-19T07:38:55;97552.63;;;22.29;59.78
59831;BME280;45711;50.108;13.712;2023-09-19T07:41:23;97560.97;;;21.36;64.48
59831;BME280;45711;50.108;13.712;2023-09-19T07:43:48;97577.09;;;20.58;68.57
59831;BME280;45711;50.108;13.712;2023-09-19T07:46:15;97581.63;;;20.54;68.78
59831;BME280;45711;50.108;13.712;2023-09-19T07:48:42;97580.94;;;20.57;68.97
59831;BME280;45711;50.108;13.712;2023-09-19T07:51:13;97589.34;;;20.21;71.11
59831;BME280;45711;50.108;13.712;2023-09-19T07:53:41;97587.06;;;20.54;68.85
59831;BME280;45711;50.108;13.712;2023-09-19T07:56:10;97593.78;;;20.13;71.20
59831;BME280;45711;50.108;13.712;2023-09-19T07:58:39;97588.91;;;20.34;70.96
59831;BME280;45711;50.108;13.712;2023-09-19T08:01:07;97603.44;;;20.26;71.78
59831;BME280;45711;50.108;13.712;2023-09-19T08:03:34;97604.28;;;20.15;71.21
59831;BME280;45711;50.108;13.712;2023-09-19T08:06:00;97601.44;;;20.39;70.64
59831;BME280;45711;50.108;13.712;2023-09-19T08:08:26;97597.56;;;21.03;68.12
59831;BME280;45711;50.108;13.712;2023-09-19T08:10:56;97588.81;;;21.29;65.49
59831;BME280;45711;50.108;13.712;2023-09-19T08:13:22;97588.56;;;21.19;65.65
59831;BME280;45711;50.108;13.712;2023-09-19T08:15:48;97596.91;;;20.75;66.79
59831;BME280;45711;50.108;13.712;2023-09-19T08:18:13;97591.97;;;20.80;67.03
59831;BME280;45711;50.108;13.712;2023-09-19T08:20:40;97596.81;;;20.71;67.24
59831;BME280;45711;50.108;13.712;2023-09-19T08:23:09;97583.19;;;20.87;66.50
59831;BME280;45711;50.108;13.712;2023-09-19T08:25:35;97598.91;;;20.78;66.29
59831;BME280;45711;50.108;13.712;2023-09-19T08:28:00;97595.47;;;20.97;65.96
59831;BME280;45711;50.108;13.712;2023-09-19T08:30:29;97602.88;;;20.65;66.73
59831;BME280;45711;50.108;13.712;2023-09-19T08:32:57;97604.25;;;20.58;67.19
59831;BME280;45711;50.108;13.712;2023-09-19T08:35:23;97598.47;;;20.76;66.23
59831;BME280;45711;50.108;13.712;2023-09-19T08:37:50;97600.81;;;21.28;64.45
59831;BME280;45711;50.108;13.712;2023-09-19T08:40:17;97594.78;;;21.19;64.44
59831;BME280;45711;50.108;13.712;2023-09-19T08:42:49;97601.63;;;22.06;62.38
59831;BME280;45711;50.108;13.712;2023-09-19T08:45:18;97598.22;;;21.90;61.87
59831;BME280;45711;50.108;13.712;2023-09-19T08:47:53;97599.97;;;21.60;62.63
59831;BME280;45711;50.108;13.712;2023-09-19T08:50:26;97606.16;;;21.41;63.59
59831;BME280;45711;50.108;13.712;2023-09-19T08:52:55;97607.69;;;21.22;64.02
59831;BME280;45711;50.108;13.712;2023-09-19T08:55:26;97613.41;;;21.17;63.62
59831;BME280;45711;50.108;13.712;2023-09-19T08:57:56;97618.69;;;21.10;64.57
59831;BME280;45711;50.108;13.712;2023-09-19T09:00:24;97617.53;;;21.11;64.37
59831;BME280;45711;50.108;13.712;2023-09-19T09:02:53;97612.09;;;21.11;64.15
59831;BME280;45711;50.108;13.712;2023-09-19T09:05:20;97622.38;;;21.02;64.59
59831;BME280;45711;50.108;13.712;2023-09-19T09:07:48;97623.34;;;20.94;64.80
59831;BME280;45711;50.108;13.712;2023-09-19T09:10:17;97616.47;;;21.31;64.04
59831;BME280;45711;50.108;13.712;2023-09-19T09:12:43;97606.16;;;21.99;62.24
59831;BME280;45711;50.108;13.712;2023-09-19T09:15:09;97608.88;;;22.18;62.00
59831;BME280;45711;50.108;13.712;2023-09-19T09:17:38;97607.84;;;21.65;61.82
59831;BME280;45711;50.108;13.712;2023-09-19T09:20:04;97604.91;;;21.73;63.00
59831;BME280;45711;50.108;13.712;2023-09-19T09:22:35;97602.63;;;21.98;61.84
59831;BME280;45711;50.108;13.712;2023-09-19T09:25:01;97605.69;;;21.74;61.54
59831;BME280;45711;50.108;13.712;2023-09-19T09:27:30;97595.56;;;22.13;60.81
59831;BME280;45711;50.108;13.712;2023-09-19T09:29:58;97592.81;;;22.13;59.91
59831;BME280;45711;50.108;13.712;2023-09-19T09:32:24;97593.81;;;22.05;60.74
59831;BME280;45711;50.108;13.712;2023-09-19T09:34:52;97597.34;;;22.74;59.25
59831;BME280;45711;50.108;13.712;2023-09-19T09:37:18;97610.91;;;21.82;60.49
59831;BME280;45711;50.108;13.712;2023-09-19T09:39:52;97604.69;;;21.82;60.37
59831;BME280;45711;50.108;13.712;2023-09-19T09:42:36;97605.44;;;22.21;59.92
59831;BME280;45711;50.108;13.712;2023-09-19T09:45:17;97603.97;;;22.27;57.63
59831;BME280;45711;50.108;13.712;2023-09-19T09:47:44;97600.66;;;21.95;58.77
59831;BME280;45711;50.108;13.712;2023-09-19T09:50:27;97607.97;;;21.52;60.95
59831;BME280;45711;50.108;13.712;2023-09-19T09:53:25;97610.84;;;21.60;61.06
59831;BME280;45711;50.108;13.712;2023-09-19T09:56:02;97616.63;;;21.58;61.05
59831;BME280;45711;50.108;13.712;2023-09-19T09:58:32;97618.94;;;21.56;60.75
59831;BME280;45711;50.108;13.712;2023-09-19T10:00:59;97610.78;;;21.56;60.38
59831;BME280;45711;50.108;13.712;2023-09-19T10:03:32;97621.22;;;21.35;61.72
59831;BME280;45711;50.108;13.712;2023-09-19T10:06:00;97612.75;;;21.40;60.25
59831;BME280;45711;50.108;13.712;2023-09-19T10:08:28;97614.13;;;21.49;59.32
59831;BME280;45711;50.108;13.712;2023-09-19T10:10:56;97612.03;;;22.01;58.09
59831;BME280;45711;50.108;13.712;2023-09-19T10:13:35;97625.28;;;22.02;57.82
59831;BME280;45711;50.108;13.712;2023-09-19T10:16:09;97622.53;;;21.60;59.01
59831;BME280;45711;50.108;13.712;2023-09-19T10:18:36;97619.50;;;21.65;57.68
59831;BME280;45711;50.108;13.712;2023-09-19T10:21:04;97614.63;;;21.74;57.06
59831;BME280;45711;50.108;13.712;2023-09-19T10:23:32;97616.66;;;21.77;57.26
59831;BME280;45711;50.108;13.712;2023-09-19T10:26:01;97615.34;;;21.52;58.97
59831;BME280;45711;50.108;13.712;2023-09-19T10:28:28;97630.44;;;21.49;59.04
59831;BME280;45711;50.108;13.712;2023-09-19T10:30:57;97636.84;;;21.76;56.50
59831;BME280;45711;50.108;13.712;2023-09-19T10:33:25;97628.38;;;21.62;57.15
59831;BME280;45711;50.108;13.712;2023-09-19T10:35:51;97641.72;;;21.67;56.10
59831;BME280;45711;50.108;13.712;2023-09-19T10:38:18;97632.88;;;21.54;57.32
59831;BME280;45711;50.108;13.712;2023-09-19T10:40:49;97623.28;;;21.41;56.19
59831;BME280;45711;50.108;13.712;2023-09-19T10:43:19;97624.88;;;21.42;53.65
59831;BME280;45711;50.108;13.712;2023-09-19T10:45:47;97625.94;;;21.38;54.44
59831;BME280;45711;50.108;13.712;2023-09-19T10:48:16;97634.03;;;21.34;52.94
59831;BME280;45711;50.108;13.712;2023-09-19T10:50:47;97638.31;;;21.35;53.84
59831;BME280;45711;50.108;13.712;2023-09-19T10:53:16;97639.09;;;21.36;54.52
59831;BME280;45711;50.108;13.712;2023-09-19T10:55:49;97641.28;;;21.65;51.04
59831;BME280;45711;50.108;13.712;2023-09-19T10:58:25;97638.53;;;21.46;56.46
59831;BME280;45711;50.108;13.712;2023-09-19T11:00:52;97644.91;;;21.34;55.23
59831;BME280;45711;50.108;13.712;2023-09-19T11:03:23;97640.56;;;21.49;54.29
59831;BME280;45711;50.108;13.712;2023-09-19T11:06:03;97635.97;;;21.53;51.88
59831;BME280;45711;50.108;13.712;2023-09-19T11:08:54;97637.13;;;21.71;49.42
59831;BME280;45711;50.108;13.712;2023-09-19T11:11:50;97641.59;;;21.60;55.32
59831;BME280;45711;50.108;13.712;2023-09-19T11:14:40;97639.44;;;21.69;51.69
59831;BME280;45711;50.108;13.712;2023-09-19T11:17:40;97630.97;;;21.55;53.96
59831;BME280;45711;50.108;13.712;2023-09-19T11:20:22;97634.72;;;21.86;48.86
59831;BME280;45711;50.108;13.712;2023-09-19T11:23:20;97638.88;;;21.60;54.56
59831;BME280;45711;50.108;13.712;2023-09-19T11:25:49;97637.75;;;21.45;54.30
59831;BME280;45711;50.108;13.712;2023-09-19T11:28:31;97644.56;;;21.36;54.60
59831;BME280;45711;50.108;13.712;2023-09-19T11:30:57;97636.25;;;21.48;54.67
59831;BME280;45711;50.108;13.712;2023-09-19T11:33:24;97637.41;;;21.47;52.44
59831;BME280;45711;50.108;13.712;2023-09-19T11:36:01;97634.13;;;21.76;53.04
59831;BME280;45711;50.108;13.712;2023-09-19T11:38:59;97637.50;;;21.70;54.08
59831;BME280;45711;50.108;13.712;2023-09-19T11:41:37;97631.56;;;21.64;55.44
59831;BME280;45711;50.108;13.712;2023-09-19T11:47:04;97644.59;;;21.55;56.58
59831;BME280;45711;50.108;13.712;2023-09-19T11:49:32;97630.25;;;21.77;49.80
59831;BME280;45711;50.108;13.712;2023-09-19T11:52:00;97618.84;;;21.91;50.99
59831;BME280;45711;50.108;13.712;2023-09-19T11:54:27;97627.03;;;21.72;55.70
59831;BME280;45711;50.108;13.712;2023-09-19T11:56:57;97632.41;;;21.68;55.75
59831;BME280;45711;50.108;13.712;2023-09-19T11:59:24;97625.88;;;21.53;55.99
59831;BME280;45711;50.108;13.712;2023-09-19T12:01:54;97614.34;;;21.60;56.18
59831;BME280;45711;50.108;13.712;2023-09-19T12:04:33;97620.22;;;21.43;57.30
59831;BME280;45711;50.108;13.712;2023-09-19T12:07:04;97619.34;;;21.39;57.52
59831;BME280;45711;50.108;13.712;2023-09-19T12:09:31;97627.69;;;21.30;57.69
59831;BME280;45711;50.108;13.712;2023-09-19T12:11:57;97623.16;;;21.34;57.48
59831;BME280;45711;50.108;13.712;2023-09-19T12:14:23;97598.53;;;21.46;55.71
59831;BME280;45711;50.108;13.712;2023-09-19T12:16:53;97607.72;;;21.42;54.53
59831;BME280;45711;50.108;13.712;2023-09-19T12:19:21;97607.47;;;21.47;53.58
59831;BME280;45711;50.108;13.712;2023-09-19T12:21:54;97608.53;;;21.62;54.21
59831;BME280;45711;50.108;13.712;2023-09-19T12:24:21;97607.63;;;21.73;53.18
59831;BME280;45711;50.108;13.712;2023-09-19T12:26:46;97606.16;;;21.79;53.61
59831;BME280;45711;50.108;13.712;2023-09-19T12:29:14;97603.75;;;21.74;53.35
59831;BME280;45711;50.108;13.712;2023-09-19T12:31:52;97606.53;;;21.58;51.07
59831;BME280;45711;50.108;13.712;2023-09-19T12:34:23;97602.25;;;21.77;53.97
59831;BME280;45711;50.108;13.712;2023-09-19T12:37:04;97609.03;;;21.48;55.77
59831;BME280;45711;50.108;13.712;2023-09-19T12:39:50;97601.00;;;21.94;51.26
59831;BME280;45711;50.108;13.712;2023-09-19T12:42:20;97592.13;;;21.77;52.30
59831;BME280;45711;50.108;13.712;2023-09-19T12:44:48;97601.09;;;21.58;55.12
59831;BME280;45711;50.108;13.712;2023-09-19T12:47:15;97599.28;;;21.66;51.03
59831;BME280;45711;50.108;13.712;2023-09-19T12:50:07;97600.09;;;21.47;55.19
59831;BME280;45711;50.108;13.712;2023-09-19T12:52:39;97604.97;;;21.77;53.41
59831;BME280;45711;50.108;13.712;2023-09-19T12:55:06;97610.81;;;21.40;55.08
59831;BME280;45711;50.108;13.712;2023-09-19T12:57:33;97607.59;;;21.54;51.44
59831;BME280;45711;50.108;13.712;2023-09-19T13:00:00;97607.69;;;21.57;55.19
59831;BME280;45711;50.108;13.712;2023-09-19T13:02:26;97599.75;;;21.68;52.90